sensor_id;sensor_type;location;lat;lon;timestamp;P1;durP1;ratioP1;P2;durP2;ratioP2
16272;SDS011;8244;50.044;9.006;2023-08-01T00:02:23;8.52;;;4.00;;
16272;SDS011;8244;50.044;9.006;2023-08-01T00:07:26;9.70;;;4.00;;
16272;SDS011;8244;50.044;9.006;2023-08-01T00:12:28;10.05;;;4.25;;
16272;SDS011;8244;50.044;9.006;2023-08-01T00:17:30;9.05;;;4.40;;
16272;SDS011;8244;50.044;9.006;2023-08-01T00:22:33;8.40;;;4.35;;
16272;SDS011;8244;50.044;9.006;2023-08-01T00:27:35;11.30;;;4.43;;
16272;SDS011;8244;50.044;9.006;2023-08-01T00:32:37;11.18;;;4.70;;
16272;SDS011;8244;50.044;9.006;2023-08-01T00:37:40;11.45;;;4.57;;
16272;SDS011;8244;50.044;9.006;2023-08-01T00:42:42;8.77;;;4.25;;
16272;SDS011;8244;50.044;9.006;2023-08-01T00:47:43;8.05;;;3.92;;
16272;SDS011;8244;50.044;9.006;2023-08-01T00:52:46;10.05;;;4.07;;
16272;SDS011;8244;50.044;9.006;2023-08-01T00:57:48;7.95;;;4.20;;
16272;SDS011;8244;50.044;9.006;2023-08-01T01:02:50;9.52;;;4.35;;
16272;SDS011;8244;50.044;9.006;2023-08-01T01:07:53;8.10;;;4.13;;
16272;SDS011;8244;50.044;9.006;2023-08-01T01:12:56;7.00;;;4.43;;
16272;SDS011;8244;50.044;9.006;2023-08-01T01:17:57;7.22;;;3.97;;
16272;SDS011;8244;50.044;9.006;2023-08-01T01:23:01;10.00;;;4.47;;
16272;SDS011;8244;50.044;9.006;2023-08-01T01:28:04;10.02;;;4.45;;
16272;SDS011;8244;50.044;9.006;2023-08-01T01:33:07;10.90;;;4.95;;
16272;SDS011;8244;50.044;9.006;2023-08-01T01:38:11;8.05;;;4.50;;
16272;SDS011;8244;50.044;9.006;2023-08-01T01:43:13;9.70;;;4.57;;
16272;SDS011;8244;50.044;9.006;2023-08-01T01:48:14;10.98;;;4.38;;
16272;SDS011;8244;50.044;9.006;2023-08-01T01:53:17;8.15;;;4.57;;
16272;SDS011;8244;50.044;9.006;2023-08-01T01:58:19;10.75;;;4.82;;
16272;SDS011;8244;50.044;9.006;2023-08-01T02:03:20;9.23;;;5.07;;
16272;SDS011;8244;50.044;9.006;2023-08-01T02:08:23;11.30;;;4.53;;
16272;SDS011;8244;50.044;9.006;2023-08-01T02:13:25;9.50;;;4.53;;
16272;SDS011;8244;50.044;9.006;2023-08-01T02:18:27;11.02;;;4.70;;
16272;SDS011;8244;50.044;9.006;2023-08-01T02:23:30;10.00;;;4.35;;
16272;SDS011;8244;50.044;9.006;2023-08-01T02:28:33;9.77;;;4.30;;
16272;SDS011;8244;50.044;9.006;2023-08-01T02:33:35;10.48;;;4.57;;
16272;SDS011;8244;50.044;9.006;2023-08-01T02:38:38;10.32;;;4.47;;
16272;SDS011;8244;50.044;9.006;2023-08-01T02:43:39;9.88;;;4.50;;
16272;SDS011;8244;50.044;9.006;2023-08-01T02:48:41;11.25;;;4.78;;
16272;SDS011;8244;50.044;9.006;2023-08-01T02:53:44;8.13;;;4.03;;
16272;SDS011;8244;50.044;9.006;2023-08-01T02:58:46;8.63;;;3.83;;
16272;SDS011;8244;50.044;9.006;2023-08-01T03:03:47;8.50;;;4.00;;
16272;SDS011;8244;50.044;9.006;2023-08-01T03:08:50;7.53;;;3.83;;
16272;SDS011;8244;50.044;9.006;2023-08-01T03:13:52;5.68;;;3.53;;
16272;SDS011;8244;50.044;9.006;2023-08-01T03:18:54;7.68;;;4.10;;
16272;SDS011;8244;50.044;9.006;2023-08-01T03:23:57;6.22;;;3.85;;
16272;SDS011;8244;50.044;9.006;2023-08-01T03:28:58;5.07;;;3.22;;
16272;SDS011;8244;50.044;9.006;2023-08-01T03:34:00;5.35;;;3.08;;
16272;SDS011;8244;50.044;9.006;2023-08-01T03:39:03;6.43;;;3.40;;
16272;SDS011;8244;50.044;9.006;2023-08-01T03:44:05;6.97;;;3.40;;
16272;SDS011;8244;50.044;9.006;2023-08-01T03:49:06;5.72;;;3.03;;
16272;SDS011;8244;50.044;9.006;2023-08-01T03:54:10;6.03;;;3.58;;
16272;SDS011;8244;50.044;9.006;2023-08-01T03:59:12;6.30;;;3.00;;
16272;SDS011;8244;50.044;9.006;2023-08-01T04:04:15;6.47;;;3.22;;
16272;SDS011;8244;50.044;9.006;2023-08-01T04:09:18;5.18;;;3.40;;
16272;SDS011;8244;50.044;9.006;2023-08-01T04:14:19;4.68;;;3.17;;
16272;SDS011;8244;50.044;9.006;2023-08-01T04:19:21;6.78;;;3.35;;
16272;SDS011;8244;50.044;9.006;2023-08-01T04:24:25;6.53;;;2.85;;
16272;SDS011;8244;50.044;9.006;2023-08-01T04:29:27;9.07;;;3.10;;
16272;SDS011;8244;50.044;9.006;2023-08-01T04:34:29;6.20;;;3.22;;
16272;SDS011;8244;50.044;9.006;2023-08-01T04:39:32;6.22;;;3.47;;
16272;SDS011;8244;50.044;9.006;2023-08-01T04:44:33;5.55;;;3.20;;
16272;SDS011;8244;50.044;9.006;2023-08-01T04:49:35;5.45;;;3.00;;
16272;SDS011;8244;50.044;9.006;2023-08-01T04:54:38;6.65;;;3.33;;
16272;SDS011;8244;50.044;9.006;2023-08-01T04:59:40;10.00;;;3.30;;
16272;SDS011;8244;50.044;9.006;2023-08-01T05:04:42;7.40;;;3.28;;
16272;SDS011;8244;50.044;9.006;2023-08-01T05:09:45;4.80;;;2.80;;
16272;SDS011;8244;50.044;9.006;2023-08-01T05:14:46;8.55;;;3.22;;
16272;SDS011;8244;50.044;9.006;2023-08-01T05:19:48;6.72;;;3.30;;
16272;SDS011;8244;50.044;9.006;2023-08-01T05:24:51;5.15;;;2.75;;
16272;SDS011;8244;50.044;9.006;2023-08-01T05:29:53;6.75;;;2.97;;
16272;SDS011;8244;50.044;9.006;2023-08-01T05:34:55;4.63;;;2.80;;
16272;SDS011;8244;50.044;9.006;2023-08-01T05:39:58;5.43;;;3.40;;
16272;SDS011;8244;50.044;9.006;2023-08-01T05:44:59;5.38;;;2.80;;
16272;SDS011;8244;50.044;9.006;2023-08-01T05:50:01;6.50;;;3.03;;
16272;SDS011;8244;50.044;9.006;2023-08-01T05:55:04;6.07;;;3.28;;
16272;SDS011;8244;50.044;9.006;2023-08-01T06:00:07;6.35;;;3.45;;
16272;SDS011;8244;50.044;9.006;2023-08-01T06:05:10;5.55;;;3.17;;
16272;SDS011;8244;50.044;9.006;2023-08-01T06:10:12;5.40;;;3.35;;
16272;SDS011;8244;50.044;9.006;2023-08-01T06:15:14;5.45;;;3.30;;
16272;SDS011;8244;50.044;9.006;2023-08-01T06:20:16;5.93;;;3.33;;
16272;SDS011;8244;50.044;9.006;2023-08-01T06:25:19;5.97;;;3.20;;
16272;SDS011;8244;50.044;9.006;2023-08-01T06:30:21;4.22;;;3.20;;
16272;SDS011;8244;50.044;9.006;2023-08-01T06:35:23;4.43;;;3.05;;
16272;SDS011;8244;50.044;9.006;2023-08-01T06:40:26;5.65;;;2.80;;
16272;SDS011;8244;50.044;9.006;2023-08-01T06:45:27;6.55;;;3.42;;
16272;SDS011;8244;50.044;9.006;2023-08-01T06:50:29;4.10;;;3.00;;
16272;SDS011;8244;50.044;9.006;2023-08-01T06:55:32;5.57;;;2.90;;
16272;SDS011;8244;50.044;9.006;2023-08-01T07:00:34;4.50;;;2.60;;
16272;SDS011;8244;50.044;9.006;2023-08-01T07:05:35;4.07;;;2.65;;
16272;SDS011;8244;50.044;9.006;2023-08-01T07:10:39;3.35;;;2.30;;
16272;SDS011;8244;50.044;9.006;2023-08-01T07:15:41;3.83;;;3.08;;
16272;SDS011;8244;50.044;9.006;2023-08-01T07:20:43;5.88;;;2.95;;
16272;SDS011;8244;50.044;9.006;2023-08-01T07:25:46;3.92;;;2.20;;
16272;SDS011;8244;50.044;9.006;2023-08-01T07:30:48;4.13;;;1.80;;
16272;SDS011;8244;50.044;9.006;2023-08-01T07:35:50;2.03;;;1.60;;
16272;SDS011;8244;50.044;9.006;2023-08-01T07:40:53;2.72;;;1.33;;
16272;SDS011;8244;50.044;9.006;2023-08-01T07:45:56;1.90;;;1.50;;
16272;SDS011;8244;50.044;9.006;2023-08-01T07:50:58;1.80;;;1.30;;
16272;SDS011;8244;50.044;9.006;2023-08-01T07:56:01;2.63;;;1.40;;
16272;SDS011;8244;50.044;9.006;2023-08-01T08:01:03;1.67;;;1.30;;
16272;SDS011;8244;50.044;9.006;2023-08-01T08:06:05;2.40;;;1.52;;
16272;SDS011;8244;50.044;9.006;2023-08-01T08:11:08;1.67;;;1.35;;
16272;SDS011;8244;50.044;9.006;2023-08-01T08:16:10;1.83;;;1.30;;
16272;SDS011;8244;50.044;9.006;2023-08-01T08:21:11;2.33;;;1.55;;
16272;SDS011;8244;50.044;9.006;2023-08-01T08:26:15;3.80;;;1.45;;
16272;SDS011;8244;50.044;9.006;2023-08-01T08:31:16;2.28;;;1.48;;
16272;SDS011;8244;50.044;9.006;2023-08-01T08:36:18;2.83;;;1.58;;
16272;SDS011;8244;50.044;9.006;2023-08-01T08:41:22;3.40;;;1.48;;
16272;SDS011;8244;50.044;9.006;2023-08-01T08:46:28;4.18;;;1.27;;
16272;SDS011;8244;50.044;9.006;2023-08-01T08:51:30;1.63;;;1.25;;
16272;SDS011;8244;50.044;9.006;2023-08-01T08:56:34;2.63;;;1.30;;
16272;SDS011;8244;50.044;9.006;2023-08-01T09:01:36;1.65;;;1.20;;
16272;SDS011;8244;50.044;9.006;2023-08-01T09:06:40;2.05;;;1.23;;
16272;SDS011;8244;50.044;9.006;2023-08-01T09:11:47;3.50;;;1.42;;
16272;SDS011;8244;50.044;9.006;2023-08-01T09:16:50;1.73;;;1.30;;
16272;SDS011;8244;50.044;9.006;2023-08-01T09:21:51;3.80;;;1.30;;
16272;SDS011;8244;50.044;9.006;2023-08-01T09:27:01;2.80;;;1.33;;
16272;SDS011;8244;50.044;9.006;2023-08-01T09:32:11;1.70;;;1.30;;
16272;SDS011;8244;50.044;9.006;2023-08-01T09:37:14;3.53;;;1.33;;
16272;SDS011;8244;50.044;9.006;2023-08-01T09:42:17;4.15;;;1.50;;
16272;SDS011;8244;50.044;9.006;2023-08-01T09:47:19;3.88;;;1.85;;
16272;SDS011;8244;50.044;9.006;2023-08-01T09:52:26;2.10;;;1.50;;
16272;SDS011;8244;50.044;9.006;2023-08-01T09:57:30;2.17;;;1.42;;
16272;SDS011;8244;50.044;9.006;2023-08-01T10:02:32;2.70;;;1.42;;
16272;SDS011;8244;50.044;9.006;2023-08-01T10:07:35;1.80;;;1.13;;
16272;SDS011;8244;50.044;9.006;2023-08-01T10:12:40;2.33;;;1.35;;
16272;SDS011;8244;50.044;9.006;2023-08-01T10:17:48;1.13;;;1.02;;
16272;SDS011;8244;50.044;9.006;2023-08-01T10:22:49;1.35;;;1.15;;
16272;SDS011;8244;50.044;9.006;2023-08-01T10:28:00;1.95;;;1.13;;
16272;SDS011;8244;50.044;9.006;2023-08-01T10:33:03;3.28;;;1.40;;
16272;SDS011;8244;50.044;9.006;2023-08-01T10:38:05;2.30;;;1.10;;
16272;SDS011;8244;50.044;9.006;2023-08-01T10:43:20;3.28;;;1.75;;
16272;SDS011;8244;50.044;9.006;2023-08-01T10:48:22;1.77;;;1.20;;
16272;SDS011;8244;50.044;9.006;2023-08-01T10:53:24;2.05;;;1.63;;
16272;SDS011;8244;50.044;9.006;2023-08-01T10:58:27;2.80;;;1.30;;
16272;SDS011;8244;50.044;9.006;2023-08-01T11:03:35;2.78;;;1.13;;
16272;SDS011;8244;50.044;9.006;2023-08-01T11:08:38;2.47;;;1.23;;
16272;SDS011;8244;50.044;9.006;2023-08-01T11:13:41;2.95;;;1.13;;
16272;SDS011;8244;50.044;9.006;2023-08-01T11:18:51;1.73;;;1.05;;
16272;SDS011;8244;50.044;9.006;2023-08-01T11:23:53;2.95;;;1.40;;
16272;SDS011;8244;50.044;9.006;2023-08-01T11:29:00;1.98;;;1.42;;
16272;SDS011;8244;50.044;9.006;2023-08-01T11:34:03;2.15;;;1.23;;
16272;SDS011;8244;50.044;9.006;2023-08-01T11:39:04;2.40;;;1.40;;
16272;SDS011;8244;50.044;9.006;2023-08-01T11:44:08;2.90;;;1.65;;
16272;SDS011;8244;50.044;9.006;2023-08-01T11:49:13;2.85;;;1.65;;
16272;SDS011;8244;50.044;9.006;2023-08-01T11:54:15;3.67;;;1.60;;
16272;SDS011;8244;50.044;9.006;2023-08-01T11:59:18;2.75;;;1.38;;
16272;SDS011;8244;50.044;9.006;2023-08-01T12:04:23;2.90;;;1.30;;
16272;SDS011;8244;50.044;9.006;2023-08-01T12:09:25;2.33;;;1.30;;
16272;SDS011;8244;50.044;9.006;2023-08-01T12:14:28;1.88;;;1.25;;
16272;SDS011;8244;50.044;9.006;2023-08-01T12:19:30;3.22;;;1.65;;
16272;SDS011;8244;50.044;9.006;2023-08-01T12:24:33;5.05;;;1.40;;
16272;SDS011;8244;50.044;9.006;2023-08-01T12:29:38;3.30;;;1.33;;
16272;SDS011;8244;50.044;9.006;2023-08-01T12:34:43;2.38;;;1.50;;
16272;SDS011;8244;50.044;9.006;2023-08-01T12:39:44;1.75;;;1.38;;
16272;SDS011;8244;50.044;9.006;2023-08-01T12:44:47;3.33;;;1.50;;
16272;SDS011;8244;50.044;9.006;2023-08-01T12:49:49;3.85;;;1.50;;
16272;SDS011;8244;50.044;9.006;2023-08-01T12:54:51;2.58;;;1.67;;
16272;SDS011;8244;50.044;9.006;2023-08-01T12:59:54;5.03;;;2.47;;
16272;SDS011;8244;50.044;9.006;2023-08-01T13:04:55;2.83;;;1.58;;
16272;SDS011;8244;50.044;9.006;2023-08-01T13:09:58;3.95;;;1.60;;
16272;SDS011;8244;50.044;9.006;2023-08-01T13:15:01;3.25;;;1.52;;
16272;SDS011;8244;50.044;9.006;2023-08-01T13:20:03;2.90;;;1.60;;
16272;SDS011;8244;50.044;9.006;2023-08-01T13:25:06;1.58;;;1.42;;
16272;SDS011;8244;50.044;9.006;2023-08-01T13:30:10;4.72;;;1.98;;
16272;SDS011;8244;50.044;9.006;2023-08-01T13:35:15;4.65;;;1.75;;
16272;SDS011;8244;50.044;9.006;2023-08-01T13:40:17;1.77;;;1.35;;
16272;SDS011;8244;50.044;9.006;2023-08-01T13:45:20;1.90;;;1.35;;
16272;SDS011;8244;50.044;9.006;2023-08-01T13:50:22;3.35;;;1.58;;
16272;SDS011;8244;50.044;9.006;2023-08-01T13:55:23;3.50;;;1.60;;
16272;SDS011;8244;50.044;9.006;2023-08-01T14:00:26;2.55;;;1.50;;
16272;SDS011;8244;50.044;9.006;2023-08-01T14:05:28;3.75;;;1.50;;
16272;SDS011;8244;50.044;9.006;2023-08-01T14:10:29;4.65;;;1.80;;
16272;SDS011;8244;50.044;9.006;2023-08-01T14:15:33;4.18;;;1.70;;
16272;SDS011;8244;50.044;9.006;2023-08-01T14:20:34;3.60;;;1.70;;
16272;SDS011;8244;50.044;9.006;2023-08-01T14:25:36;3.58;;;1.60;;
16272;SDS011;8244;50.044;9.006;2023-08-01T14:30:39;5.03;;;2.10;;
16272;SDS011;8244;50.044;9.006;2023-08-01T14:35:41;4.63;;;1.75;;
16272;SDS011;8244;50.044;9.006;2023-08-01T14:40:43;4.47;;;1.92;;
16272;SDS011;8244;50.044;9.006;2023-08-01T14:45:46;3.90;;;1.80;;
16272;SDS011;8244;50.044;9.006;2023-08-01T14:50:48;2.80;;;1.80;;
16272;SDS011;8244;50.044;9.006;2023-08-01T14:55:57;2.75;;;1.60;;
16272;SDS011;8244;50.044;9.006;2023-08-01T15:01:01;3.55;;;1.98;;
16272;SDS011;8244;50.044;9.006;2023-08-01T15:06:06;3.80;;;1.63;;
16272;SDS011;8244;50.044;9.006;2023-08-01T15:11:08;6.15;;;1.70;;
16272;SDS011;8244;50.044;9.006;2023-08-01T15:16:11;4.15;;;1.70;;
16272;SDS011;8244;50.044;9.006;2023-08-01T15:21:13;1.73;;;1.30;;
16272;SDS011;8244;50.044;9.006;2023-08-01T15:26:15;2.88;;;1.58;;
16272;SDS011;8244;50.044;9.006;2023-08-01T15:31:18;4.18;;;1.40;;
16272;SDS011;8244;50.044;9.006;2023-08-01T15:36:23;4.97;;;1.63;;
16272;SDS011;8244;50.044;9.006;2023-08-01T15:41:27;3.65;;;1.50;;
16272;SDS011;8244;50.044;9.006;2023-08-01T15:46:30;3.60;;;1.65;;
16272;SDS011;8244;50.044;9.006;2023-08-01T15:51:33;2.63;;;1.10;;
16272;SDS011;8244;50.044;9.006;2023-08-01T15:56:35;3.58;;;1.42;;
16272;SDS011;8244;50.044;9.006;2023-08-01T16:01:38;3.17;;;1.10;;
16272;SDS011;8244;50.044;9.006;2023-08-01T16:06:40;1.88;;;1.30;;
16272;SDS011;8244;50.044;9.006;2023-08-01T16:11:41;5.55;;;1.50;;
16272;SDS011;8244;50.044;9.006;2023-08-01T16:16:44;4.68;;;1.38;;
16272;SDS011;8244;50.044;9.006;2023-08-01T16:21:46;4.50;;;1.70;;
16272;SDS011;8244;50.044;9.006;2023-08-01T16:26:48;2.58;;;1.50;;
16272;SDS011;8244;50.044;9.006;2023-08-01T16:31:50;3.92;;;1.55;;
16272;SDS011;8244;50.044;9.006;2023-08-01T16:36:52;3.33;;;1.55;;
16272;SDS011;8244;50.044;9.006;2023-08-01T16:41:54;3.85;;;1.52;;
16272;SDS011;8244;50.044;9.006;2023-08-01T16:46:57;4.70;;;1.60;;
16272;SDS011;8244;50.044;9.006;2023-08-01T16:51:59;1.77;;;1.20;;
16272;SDS011;8244;50.044;9.006;2023-08-01T16:57:00;3.97;;;1.63;;
16272;SDS011;8244;50.044;9.006;2023-08-01T17:02:05;5.00;;;2.05;;
16272;SDS011;8244;50.044;9.006;2023-08-01T17:07:08;2.80;;;1.50;;
16272;SDS011;8244;50.044;9.006;2023-08-01T17:12:10;3.30;;;1.90;;
16272;SDS011;8244;50.044;9.006;2023-08-01T17:17:13;3.00;;;1.63;;
16272;SDS011;8244;50.044;9.006;2023-08-01T17:22:15;3.08;;;1.77;;
16272;SDS011;8244;50.044;9.006;2023-08-01T17:27:17;3.05;;;1.75;;
16272;SDS011;8244;50.044;9.006;2023-08-01T17:32:20;3.22;;;1.48;;
16272;SDS011;8244;50.044;9.006;2023-08-01T17:37:22;5.28;;;1.70;;
16272;SDS011;8244;50.044;9.006;2023-08-01T17:42:23;2.60;;;1.45;;
16272;SDS011;8244;50.044;9.006;2023-08-01T17:47:26;2.47;;;1.42;;
16272;SDS011;8244;50.044;9.006;2023-08-01T17:52:28;4.20;;;1.65;;
16272;SDS011;8244;50.044;9.006;2023-08-01T17:57:30;3.65;;;1.52;;
16272;SDS011;8244;50.044;9.006;2023-08-01T18:02:33;3.38;;;1.50;;
16272;SDS011;8244;50.044;9.006;2023-08-01T18:07:35;3.42;;;1.50;;
16272;SDS011;8244;50.044;9.006;2023-08-01T18:12:37;3.60;;;1.50;;
16272;SDS011;8244;50.044;9.006;2023-08-01T18:17:40;4.63;;;1.73;;
16272;SDS011;8244;50.044;9.006;2023-08-01T18:22:42;6.78;;;1.60;;
16272;SDS011;8244;50.044;9.006;2023-08-01T18:27:44;5.40;;;1.52;;
16272;SDS011;8244;50.044;9.006;2023-08-01T18:32:47;3.80;;;1.60;;
16272;SDS011;8244;50.044;9.006;2023-08-01T18:37:48;5.90;;;1.80;;
16272;SDS011;8244;50.044;9.006;2023-08-01T18:42:50;3.33;;;1.50;;
16272;SDS011;8244;50.044;9.006;2023-08-01T18:47:53;4.03;;;1.73;;
16272;SDS011;8244;50.044;9.006;2023-08-01T18:52:55;5.80;;;1.48;;
16272;SDS011;8244;50.044;9.006;2023-08-01T18:57:56;7.78;;;1.65;;
16272;SDS011;8244;50.044;9.006;2023-08-01T19:03:00;3.58;;;1.30;;
16272;SDS011;8244;50.044;9.006;2023-08-01T19:08:03;2.75;;;1.25;;
16272;SDS011;8244;50.044;9.006;2023-08-01T19:13:05;3.75;;;1.33;;
16272;SDS011;8244;50.044;9.006;2023-08-01T19:18:08;2.47;;;1.27;;
16272;SDS011;8244;50.044;9.006;2023-08-01T19:23:10;2.80;;;1.50;;
16272;SDS011;8244;50.044;9.006;2023-08-01T19:28:11;2.42;;;1.38;;
16272;SDS011;8244;50.044;9.006;2023-08-01T19:33:14;3.47;;;1.50;;
16272;SDS011;8244;50.044;9.006;2023-08-01T19:38:16;2.42;;;1.20;;
16272;SDS011;8244;50.044;9.006;2023-08-01T19:43:18;2.95;;;1.50;;
16272;SDS011;8244;50.044;9.006;2023-08-01T19:48:21;3.22;;;1.50;;
16272;SDS011;8244;50.044;9.006;2023-08-01T19:53:23;4.05;;;1.70;;
16272;SDS011;8244;50.044;9.006;2023-08-01T19:58:25;3.97;;;1.52;;
16272;SDS011;8244;50.044;9.006;2023-08-01T20:03:29;3.85;;;1.50;;
16272;SDS011;8244;50.044;9.006;2023-08-01T20:08:32;4.90;;;1.73;;
16272;SDS011;8244;50.044;9.006;2023-08-01T20:13:34;4.72;;;1.73;;
16272;SDS011;8244;50.044;9.006;2023-08-01T20:18:37;3.40;;;1.50;;
16272;SDS011;8244;50.044;9.006;2023-08-01T20:23:38;5.70;;;1.98;;
16272;SDS011;8244;50.044;9.006;2023-08-01T20:28:40;2.90;;;1.73;;
16272;SDS011;8244;50.044;9.006;2023-08-01T20:33:43;3.13;;;1.60;;
16272;SDS011;8244;50.044;9.006;2023-08-01T20:38:45;5.43;;;2.10;;
16272;SDS011;8244;50.044;9.006;2023-08-01T20:43:46;4.35;;;1.70;;
16272;SDS011;8244;50.044;9.006;2023-08-01T20:48:49;5.95;;;1.85;;
16272;SDS011;8244;50.044;9.006;2023-08-01T20:53:51;4.38;;;1.70;;
16272;SDS011;8244;50.044;9.006;2023-08-01T20:58:53;5.32;;;2.08;;
16272;SDS011;8244;50.044;9.006;2023-08-01T21:03:56;4.15;;;2.05;;
16272;SDS011;8244;50.044;9.006;2023-08-01T21:08:57;6.43;;;2.13;;
16272;SDS011;8244;50.044;9.006;2023-08-01T21:13:59;7.30;;;2.00;;
16272;SDS011;8244;50.044;9.006;2023-08-01T21:19:02;2.72;;;1.70;;
16272;SDS011;8244;50.044;9.006;2023-08-01T21:24:04;6.07;;;2.20;;
16272;SDS011;8244;50.044;9.006;2023-08-01T21:29:06;3.72;;;2.00;;
16272;SDS011;8244;50.044;9.006;2023-08-01T21:34:09;5.22;;;2.00;;
16272;SDS011;8244;50.044;9.006;2023-08-01T21:39:11;6.93;;;1.77;;
16272;SDS011;8244;50.044;9.006;2023-08-01T21:44:13;8.15;;;2.20;;
16272;SDS011;8244;50.044;9.006;2023-08-01T21:49:16;11.35;;;2.13;;
16272;SDS011;8244;50.044;9.006;2023-08-01T21:54:17;5.15;;;2.03;;
16272;SDS011;8244;50.044;9.006;2023-08-01T21:59:19;6.40;;;2.40;;
16272;SDS011;8244;50.044;9.006;2023-08-01T22:04:22;8.68;;;2.30;;
16272;SDS011;8244;50.044;9.006;2023-08-01T22:09:24;4.82;;;2.03;;
16272;SDS011;8244;50.044;9.006;2023-08-01T22:14:25;7.90;;;2.20;;
16272;SDS011;8244;50.044;9.006;2023-08-01T22:19:29;5.30;;;2.17;;
16272;SDS011;8244;50.044;9.006;2023-08-01T22:24:30;5.53;;;2.20;;
16272;SDS011;8244;50.044;9.006;2023-08-01T22:29:32;5.05;;;2.15;;
16272;SDS011;8244;50.044;9.006;2023-08-01T22:34:35;7.38;;;2.20;;
16272;SDS011;8244;50.044;9.006;2023-08-01T22:39:37;6.15;;;2.38;;
16272;SDS011;8244;50.044;9.006;2023-08-01T22:44:39;6.43;;;2.00;;
16272;SDS011;8244;50.044;9.006;2023-08-01T22:49:42;7.07;;;2.60;;
16272;SDS011;8244;50.044;9.006;2023-08-01T22:54:44;5.88;;;2.40;;
16272;SDS011;8244;50.044;9.006;2023-08-01T22:59:45;11.75;;;3.22;;
16272;SDS011;8244;50.044;9.006;2023-08-01T23:04:48;7.43;;;2.55;;
16272;SDS011;8244;50.044;9.006;2023-08-01T23:09:50;6.38;;;2.45;;
16272;SDS011;8244;50.044;9.006;2023-08-01T23:14:54;7.70;;;2.78;;
16272;SDS011;8244;50.044;9.006;2023-08-01T23:19:59;9.20;;;2.88;;
16272;SDS011;8244;50.044;9.006;2023-08-01T23:25:01;7.93;;;2.80;;
16272;SDS011;8244;50.044;9.006;2023-08-01T23:30:03;8.55;;;2.60;;
16272;SDS011;8244;50.044;9.006;2023-08-01T23:35:07;7.55;;;2.80;;
16272;SDS011;8244;50.044;9.006;2023-08-01T23:40:09;7.80;;;2.72;;
16272;SDS011;8244;50.044;9.006;2023-08-01T23:45:12;9.98;;;3.00;;
16272;SDS011;8244;50.044;9.006;2023-08-01T23:50:15;5.57;;;2.50;;
16272;SDS011;8244;50.044;9.006;2023-08-01T23:55:17;7.85;;;2.90;;
